Time;durP1;ratioP1;P1;durP2;ratioP2;P2;SDS_P1;SDS_P2;PMS_P1;PMS_P2;Temp;Humidity;BMP_temperature;BMP_pressure;BME280_temperature;BME280_humidity;BME280_pressure;Samples;Min_cycle;Max_cycle;Signal;HPM_P1;HPM_P2
2022/11/01 00:01:03;;;;;;;0.20;0.20;;;;;;;;;;6197987;22;20015;-86
2022/11/01 00:03:29;;;;;;;0.10;0.10;;;;;;;;;;6248090;22;20012;-86
2022/11/01 00:05:55;;;;;;;1.13;0.32;;;;;;;;;;6223171;22;20117;-87
2022/11/01 00:08:21;;;;;;;0.63;0.50;;;;;;;;;;6222436;22;20019;-87
2022/11/01 00:10:47;;;;;;;0.13;0.13;;;;;;;;;;6222806;22;20441;-87
2022/11/01 00:13:13;;;;;;;0.20;0.20;;;;;;;;;;6222849;22;20090;-87
2022/11/01 00:15:39;;;;;;;0.10;0.10;;;;;;;;;;6248055;22;20007;-87
2022/11/01 00:18:05;;;;;;;0.20;0.20;;;;;;;;;;6247771;22;20175;-87
2022/11/01 00:20:31;;;;;;;0.20;0.20;;;;;;;;;;6247952;22;20016;-87
2022/11/01 00:22:57;;;;;;;0.10;0.10;;;;;;;;;;6222750;22;20042;-87
2022/11/01 00:25:23;;;;;;;0.30;0.30;;;;;;;;;;6222676;22;20444;-86
2022/11/01 00:27:49;;;;;;;0.10;0.10;;;;;;;;;;6222390;22;20069;-87
2022/11/01 00:30:15;;;;;;;0.10;0.10;;;;;;;;;;6222801;22;20083;-86
2022/11/01 00:32:41;;;;;;;0.25;0.25;;;;;;;;;;6248013;22;20035;-87
2022/11/01 00:35:07;;;;;;;1.13;0.30;;;;;;;;;;6222959;22;20035;-86
2022/11/01 00:37:33;;;;;;;0.10;0.10;;;;;;;;;;6222677;22;20016;-87
2022/11/01 00:39:59;;;;;;;0.20;0.20;;;;;;;;;;6222603;22;20015;-87
2022/11/01 00:42:25;;;;;;;0.20;0.20;;;;;;;;;;6247608;22;20015;-87
2022/11/01 00:44:51;;;;;;;0.10;0.10;;;;;;;;;;6197716;22;20453;-86
2022/11/01 00:47:17;;;;;;;0.10;0.10;;;;;;;;;;6222508;22;20342;-87
2022/11/01 00:49:43;;;;;;;0.10;0.10;;;;;;;;;;6247720;22;20091;-87
2022/11/01 00:52:09;;;;;;;0.20;0.20;;;;;;;;;;6222761;22;20012;-86
2022/11/01 00:54:35;;;;;;;0.10;0.10;;;;;;;;;;6247756;22;20491;-86
2022/11/01 00:57:01;;;;;;;0.20;0.20;;;;;;;;;;6197238;22;20023;-86
2022/11/01 00:59:27;;;;;;;0.10;0.10;;;;;;;;;;6199868;22;20409;-87
2022/11/01 01:01:53;;;;;;;0.10;0.10;;;;;;;;;;6224565;22;20035;-86
2022/11/01 01:04:19;;;;;;;0.10;0.10;;;;;;;;;;6224410;22;20022;-87
2022/11/01 01:06:45;;;;;;;0.20;0.20;;;;;;;;;;6224444;22;20016;-86
2022/11/01 01:09:11;;;;;;;0.10;0.10;;;;;;;;;;6199255;22;20023;-86
2022/11/01 01:11:37;;;;;;;0.10;0.10;;;;;;;;;;6224783;22;20018;-87
2022/11/01 01:14:03;;;;;;;0.10;0.10;;;;;;;;;;6249530;22;20052;-86
2022/11/01 01:16:29;;;;;;;0.20;0.20;;;;;;;;;;6249471;22;20058;-87
2022/11/01 01:18:55;;;;;;;0.32;0.32;;;;;;;;;;6199424;22;20081;-87
2022/11/01 01:21:21;;;;;;;0.47;0.47;;;;;;;;;;6249557;22;20016;-86
2022/11/01 01:23:47;;;;;;;0.10;0.10;;;;;;;;;;6224331;22;20018;-86
2022/11/01 01:26:13;;;;;;;0.10;0.10;;;;;;;;;;6249629;22;20016;-87
2022/11/01 01:28:39;;;;;;;0.10;0.10;;;;;;;;;;6224309;22;20022;-87
2022/11/01 01:31:08;;;;;;;0.10;0.10;;;;;;;;;;6224278;22;20030;-87
2022/11/01 01:33:34;;;;;;;0.43;0.40;;;;;;;;;;6199275;22;20441;-87
2022/11/01 01:36:01;;;;;;;0.20;0.20;;;;;;;;;;6224212;22;20007;-86
2022/11/01 01:38:27;;;;;;;0.10;0.10;;;;;;;;;;6224254;22;20011;-87
2022/11/01 01:40:53;;;;;;;0.10;0.10;;;;;;;;;;6224294;22;20448;-87
2022/11/01 01:43:19;;;;;;;0.10;0.10;;;;;;;;;;6224103;22;20011;-86
2022/11/01 01:45:45;;;;;;;0.20;0.20;;;;;;;;;;6224326;22;20015;-87
2022/11/01 01:48:15;;;;;;;0.20;0.20;;;;;;;;;;6249379;22;20015;-87
2022/11/01 01:50:43;;;;;;;0.10;0.10;;;;;;;;;;6199075;22;20019;-87
2022/11/01 01:53:12;;;;;;;0.20;0.20;;;;;;;;;;6224073;22;20015;-87
2022/11/01 01:55:40;;;;;;;0.20;0.20;;;;;;;;;;6224057;22;20012;-87
2022/11/01 01:58:06;;;;;;;0.10;0.10;;;;;;;;;;6223901;22;20016;-87
2022/11/01 02:00:32;;;;;;;0.20;0.20;;;;;;;;;;6224179;22;20484;-86
2022/11/01 02:02:58;;;;;;;0.10;0.10;;;;;;;;;;6224118;22;20076;-87
2022/11/01 02:05:33;;;;;;;0.10;0.10;;;;;;;;;;6223917;22;20468;-86
2022/11/01 02:07:59;;;;;;;0.10;0.10;;;;;;;;;;6223480;22;20016;-86
2022/11/01 02:10:25;;;;;;;0.40;0.40;;;;;;;;;;6198277;22;20019;-86
2022/11/01 02:12:51;;;;;;;0.20;0.20;;;;;;;;;;6223929;22;20011;-86
2022/11/01 02:15:18;;;;;;;0.10;0.10;;;;;;;;;;6224042;22;20386;-87
2022/11/01 02:18:02;;;;;;;0.10;0.10;;;;;;;;;;6223876;22;20012;-87
2022/11/01 02:20:38;;;;;;;0.10;0.10;;;;;;;;;;6248922;22;20012;-87
2022/11/01 02:23:23;;;;;;;0.10;0.10;;;;;;;;;;6248783;22;20016;-87
2022/11/01 02:26:04;;;;;;;0.65;0.30;;;;;;;;;;6248945;22;20069;-87
2022/11/01 02:28:30;;;;;;;0.10;0.10;;;;;;;;;;6248560;22;20016;-87
2022/11/01 02:31:15;;;;;;;0.10;0.10;;;;;;;;;;6249026;22;20014;-87
2022/11/01 02:33:44;;;;;;;0.10;0.10;;;;;;;;;;6248796;22;20190;-86
2022/11/01 02:36:16;;;;;;;0.10;0.10;;;;;;;;;;6198662;22;20007;-86
2022/11/01 02:38:46;;;;;;;0.10;0.10;;;;;;;;;;6198614;22;20015;-86
2022/11/01 02:41:32;;;;;;;0.10;0.10;;;;;;;;;;6224141;22;20524;-88
2022/11/01 02:44:02;;;;;;;0.10;0.10;;;;;;;;;;6248873;22;20077;-87
2022/11/01 02:49:13;;;;;;;0.10;0.10;;;;;;;;;;6227185;22;20388;-87
2022/11/01 02:51:39;;;;;;;0.10;0.10;;;;;;;;;;6223691;22;20039;-87
2022/11/01 02:54:06;;;;;;;0.15;0.15;;;;;;;;;;6248474;22;20008;-87
2022/11/01 02:56:32;;;;;;;0.10;0.10;;;;;;;;;;6223540;22;20039;-88
2022/11/01 02:58:58;;;;;;;0.10;0.10;;;;;;;;;;6223622;22;20365;-87
2022/11/01 03:01:24;;;;;;;0.55;0.20;;;;;;;;;;6198391;22;20015;-87
2022/11/01 03:03:50;;;;;;;0.20;0.20;;;;;;;;;;6223506;22;20015;-87
2022/11/01 03:06:32;;;;;;;0.20;0.20;;;;;;;;;;6223673;22;20073;-87
2022/11/01 03:08:59;;;;;;;0.40;0.40;;;;;;;;;;6248390;22;20098;-87
2022/11/01 03:11:47;;;;;;;0.10;0.10;;;;;;;;;;6223487;22;20035;-87
2022/11/01 03:14:45;;;;;;;0.10;0.10;;;;;;;;;;6198860;22;20067;-87
2022/11/01 03:17:13;;;;;;;0.88;0.43;;;;;;;;;;6198970;22;20054;-87
2022/11/01 03:19:43;;;;;;;0.10;0.10;;;;;;;;;;6223194;22;20021;-87
2022/11/01 03:22:18;;;;;;;0.10;0.10;;;;;;;;;;6247766;22;20496;-87
2022/11/01 03:24:51;;;;;;;1.55;0.20;;;;;;;;;;6248553;22;20090;-87
2022/11/01 03:27:20;;;;;;;0.20;0.20;;;;;;;;;;6223257;22;20015;-87
2022/11/01 03:29:55;;;;;;;0.90;0.47;;;;;;;;;;6248167;22;20007;-87
2022/11/01 03:32:21;;;;;;;0.10;0.10;;;;;;;;;;6248361;22;20012;-87
2022/11/01 03:34:47;;;;;;;0.20;0.20;;;;;;;;;;6223074;22;20015;-87
2022/11/01 03:37:13;;;;;;;0.20;0.20;;;;;;;;;;6197951;22;20069;-87
2022/11/01 03:39:43;;;;;;;0.20;0.20;;;;;;;;;;6223093;22;20090;-87
2022/11/01 03:42:10;;;;;;;0.50;0.50;;;;;;;;;;6223342;22;20011;-87
2022/11/01 03:44:36;;;;;;;0.10;0.10;;;;;;;;;;6223156;22;20341;-87
2022/11/01 03:47:02;;;;;;;0.10;0.10;;;;;;;;;;6223053;22;20019;-87
2022/11/01 03:49:28;;;;;;;0.10;0.10;;;;;;;;;;6198575;22;20011;-87
2022/11/01 03:51:54;;;;;;;0.10;0.10;;;;;;;;;;6223029;22;20012;-87
2022/11/01 03:54:20;;;;;;;0.10;0.10;;;;;;;;;;6223197;22;20374;-87
2022/11/01 03:56:46;;;;;;;0.10;0.10;;;;;;;;;;6223062;22;20015;-87
2022/11/01 03:59:12;;;;;;;0.10;0.10;;;;;;;;;;6197799;22;20047;-87
2022/11/01 04:01:38;;;;;;;0.20;0.20;;;;;;;;;;6248108;22;20026;-87
2022/11/01 04:04:04;;;;;;;0.10;0.10;;;;;;;;;;6222947;22;20094;-87
2022/11/01 04:06:30;;;;;;;0.10;0.10;;;;;;;;;;6222767;22;20016;-86
2022/11/01 04:08:56;;;;;;;0.10;0.10;;;;;;;;;;6222743;22;20051;-86
2022/11/01 04:11:22;;;;;;;0.10;0.10;;;;;;;;;;6198075;22;20112;-87
2022/11/01 04:13:48;;;;;;;0.10;0.10;;;;;;;;;;6223066;22;20440;-87
2022/11/01 04:21:43;;;;;;;0.10;0.10;;;;;;;;;;6248043;22;20187;-87
2022/11/01 04:24:09;;;;;;;0.10;0.10;;;;;;;;;;6222586;22;20027;-87
2022/11/01 04:26:35;;;;;;;0.10;0.10;;;;;;;;;;6222833;22;20012;-87
2022/11/01 04:29:01;;;;;;;0.30;0.30;;;;;;;;;;6197820;22;20016;-87
2022/11/01 04:31:27;;;;;;;0.20;0.20;;;;;;;;;;6247868;22;20034;-87
2022/11/01 04:33:53;;;;;;;0.10;0.10;;;;;;;;;;6247669;22;20007;-86
2022/11/01 04:36:19;;;;;;;0.13;0.13;;;;;;;;;;6222514;22;20030;-87
2022/11/01 04:38:48;;;;;;;0.43;0.30;;;;;;;;;;6197647;22;20480;-87
2022/11/01 04:41:15;;;;;;;0.20;0.20;;;;;;;;;;6247625;22;20016;-87
2022/11/01 04:43:41;;;;;;;0.13;0.13;;;;;;;;;;6222573;22;20434;-87
2022/11/01 04:46:07;;;;;;;0.20;0.20;;;;;;;;;;6222434;22;20117;-87
2022/11/01 04:48:33;;;;;;;0.10;0.10;;;;;;;;;;6247875;22;20446;-87
2022/11/01 04:51:01;;;;;;;0.10;0.10;;;;;;;;;;6222575;22;20337;-87
2022/11/01 04:53:27;;;;;;;0.20;0.20;;;;;;;;;;6223116;22;20087;-87
2022/11/01 04:55:53;;;;;;;0.10;0.10;;;;;;;;;;6197855;22;20011;-87
2022/11/01 04:58:19;;;;;;;0.10;0.10;;;;;;;;;;6247699;22;20070;-87
2022/11/01 05:00:45;;;;;;;0.20;0.20;;;;;;;;;;6222451;22;20023;-87
2022/11/01 05:03:11;;;;;;;0.20;0.20;;;;;;;;;;6222639;22;20012;-87
2022/11/01 05:05:38;;;;;;;0.20;0.20;;;;;;;;;;6222591;22;20043;-87
2022/11/01 05:08:07;;;;;;;0.10;0.10;;;;;;;;;;6197191;22;20016;-87
2022/11/01 05:10:33;;;;;;;0.10;0.10;;;;;;;;;;6247607;22;20441;-87
2022/11/01 05:13:00;;;;;;;0.10;0.10;;;;;;;;;;6247562;22;20038;-87
2022/11/01 05:15:26;;;;;;;0.10;0.10;;;;;;;;;;6223196;22;20008;-87
2022/11/01 05:17:52;;;;;;;0.10;0.10;;;;;;;;;;6197476;22;20058;-87
2022/11/01 05:20:18;;;;;;;0.10;0.10;;;;;;;;;;6222557;22;20390;-87
2022/11/01 05:22:44;;;;;;;0.10;0.10;;;;;;;;;;6222608;22;20011;-87
2022/11/01 05:25:10;;;;;;;0.10;0.10;;;;;;;;;;6197472;22;20090;-87
2022/11/01 05:27:36;;;;;;;0.30;0.20;;;;;;;;;;6222735;22;20019;-87
2022/11/01 05:30:02;;;;;;;0.20;0.20;;;;;;;;;;6247457;22;20087;-87
2022/11/01 05:32:28;;;;;;;0.20;0.20;;;;;;;;;;6222609;22;20340;-87
2022/11/01 05:34:54;;;;;;;0.10;0.10;;;;;;;;;;6197321;22;20044;-86
2022/11/01 05:37:20;;;;;;;0.10;0.10;;;;;;;;;;6222329;22;20414;-87
2022/11/01 05:39:46;;;;;;;0.10;0.10;;;;;;;;;;6223376;22;20011;-87
2022/11/01 05:42:12;;;;;;;0.10;0.10;;;;;;;;;;6222312;22;20015;-88
2022/11/01 05:44:38;;;;;;;0.20;0.20;;;;;;;;;;6247984;22;20043;-87
2022/11/01 05:47:04;;;;;;;0.10;0.10;;;;;;;;;;6249410;22;20012;-87
2022/11/01 05:49:30;;;;;;;0.20;0.20;;;;;;;;;;6249353;22;20024;-88
2022/11/01 05:51:56;;;;;;;0.20;0.20;;;;;;;;;;6224230;22;20086;-88
2022/11/01 05:54:22;;;;;;;0.10;0.10;;;;;;;;;;6224076;22;20012;-87
2022/11/01 05:56:48;;;;;;;0.10;0.10;;;;;;;;;;6223938;22;20012;-87
2022/11/01 05:59:14;;;;;;;0.20;0.20;;;;;;;;;;6249125;22;20012;-87
2022/11/01 06:01:40;;;;;;;0.28;0.17;;;;;;;;;;6224386;22;20018;-87
2022/11/01 06:04:06;;;;;;;0.20;0.20;;;;;;;;;;6224052;22;20074;-87
2022/11/01 06:06:32;;;;;;;0.10;0.10;;;;;;;;;;6224099;22;20341;-87
2022/11/01 06:08:58;;;;;;;0.20;0.20;;;;;;;;;;6198658;22;20011;-87
2022/11/01 06:11:25;;;;;;;0.20;0.20;;;;;;;;;;6198939;22;20069;-87
2022/11/01 06:13:54;;;;;;;0.25;0.25;;;;;;;;;;6223976;22;20031;-87
2022/11/01 06:16:20;;;;;;;0.20;0.20;;;;;;;;;;6224000;22;20333;-87
2022/11/01 06:18:46;;;;;;;0.20;0.20;;;;;;;;;;6198860;22;20035;-87
2022/11/01 06:21:12;;;;;;;0.20;0.20;;;;;;;;;;6198935;22;20014;-88
2022/11/01 06:23:38;;;;;;;0.10;0.10;;;;;;;;;;6224099;22;20091;-87
2022/11/01 06:26:04;;;;;;;0.10;0.10;;;;;;;;;;6248748;22;20113;-87
2022/11/01 06:28:30;;;;;;;0.10;0.10;;;;;;;;;;6223846;22;20018;-88
2022/11/01 06:30:59;;;;;;;0.20;0.20;;;;;;;;;;6223839;22;20012;-87
2022/11/01 06:33:25;;;;;;;0.20;0.20;;;;;;;;;;6248894;22;20101;-87
2022/11/01 06:35:51;;;;;;;0.40;0.40;;;;;;;;;;6223860;22;20326;-87
2022/11/01 06:38:17;;;;;;;0.10;0.10;;;;;;;;;;6223762;22;20086;-87
2022/11/01 06:40:43;;;;;;;0.28;0.28;;;;;;;;;;6198609;22;20024;-87
2022/11/01 06:43:09;;;;;;;0.10;0.10;;;;;;;;;;6198671;22;20095;-87
2022/11/01 06:45:35;;;;;;;0.10;0.10;;;;;;;;;;6248818;22;20387;-87
2022/11/01 06:48:01;;;;;;;0.10;0.10;;;;;;;;;;6223654;22;20011;-87
2022/11/01 06:50:27;;;;;;;0.10;0.10;;;;;;;;;;6199035;22;20030;-87
2022/11/01 06:52:56;;;;;;;0.10;0.10;;;;;;;;;;6198710;22;20322;-87
2022/11/01 06:55:22;;;;;;;0.10;0.10;;;;;;;;;;6248504;22;20026;-88
2022/11/01 06:57:54;;;;;;;0.20;0.20;;;;;;;;;;6198754;22;20016;-87
2022/11/01 07:00:20;;;;;;;;;;;;;;;;;;6199186;22;20020;-87
2022/11/01 07:02:46;;;;;;;0.10;0.10;;;;;;;;;;6222782;22;19925;-87
2022/11/01 07:05:12;;;;;;;0.10;0.10;;;;;;;;;;6223725;22;20475;-86
2022/11/01 07:07:38;;;;;;;0.10;0.10;;;;;;;;;;6223102;22;20086;-87
2022/11/01 07:10:04;;;;;;;0.10;0.10;;;;;;;;;;6198944;22;20085;-87
2022/11/01 07:12:30;;;;;;;0.10;0.10;;;;;;;;;;6223790;22;20011;-87
2022/11/01 07:14:56;;;;;;;0.10;0.10;;;;;;;;;;6248824;22;20090;-87
2022/11/01 07:17:22;;;;;;;0.10;0.10;;;;;;;;;;6223446;22;20073;-87
2022/11/01 07:19:48;;;;;;;0.10;0.10;;;;;;;;;;6223599;22;20345;-87
2022/11/01 07:22:14;;;;;;;0.10;0.10;;;;;;;;;;6198528;22;20125;-87
2022/11/01 07:24:40;;;;;;;0.10;0.10;;;;;;;;;;6224318;22;20062;-87
2022/11/01 07:27:06;;;;;;;0.10;0.10;;;;;;;;;;6225348;22;20424;-86
2022/11/01 07:29:32;;;;;;;0.10;0.10;;;;;;;;;;6224361;22;20008;-87
2022/11/01 07:31:58;;;;;;;0.10;0.10;;;;;;;;;;6249477;22;20054;-87
2022/11/01 07:34:24;;;;;;;0.17;0.17;;;;;;;;;;6225807;22;20012;-88
2022/11/01 07:36:51;;;;;;;0.15;0.15;;;;;;;;;;6251633;22;20008;-86
2022/11/01 07:39:17;;;;;;;0.10;0.10;;;;;;;;;;6231363;22;20019;-87
2022/11/01 07:41:43;;;;;;;0.57;0.15;;;;;;;;;;6226640;22;20054;-86
2022/11/01 07:44:09;;;;;;;0.10;0.10;;;;;;;;;;6224689;22;20091;-85
2022/11/01 07:46:35;;;;;;;0.10;0.10;;;;;;;;;;6226439;22;20039;-87
2022/11/01 07:49:02;;;;;;;0.10;0.10;;;;;;;;;;6251511;22;20012;-89
2022/11/01 07:51:28;;;;;;;0.10;0.10;;;;;;;;;;6228424;22;20024;-89
2022/11/01 07:53:54;;;;;;;0.10;0.10;;;;;;;;;;6200383;22;20015;-89
2022/11/01 07:56:20;;;;;;;0.47;0.28;;;;;;;;;;6225130;22;20008;-88
2022/11/01 07:58:46;;;;;;;0.10;0.10;;;;;;;;;;6223709;22;20027;-87
2022/11/01 08:01:13;;;;;;;0.15;0.15;;;;;;;;;;6197743;22;20012;-87
2022/11/01 08:03:39;;;;;;;0.10;0.10;;;;;;;;;;6198259;22;20022;-91
2022/11/01 08:06:05;;;;;;;0.20;0.20;;;;;;;;;;6223783;22;20016;-91
2022/11/01 08:08:31;;;;;;;0.10;0.10;;;;;;;;;;6224569;22;20012;-88
2022/11/01 08:10:59;;;;;;;0.10;0.10;;;;;;;;;;6249338;22;20028;-89
2022/11/01 08:13:25;;;;;;;0.10;0.10;;;;;;;;;;6222284;22;20004;-89
2022/11/01 08:15:51;;;;;;;0.10;0.10;;;;;;;;;;6200157;22;20011;-89
2022/11/01 08:18:18;;;;;;;0.10;0.10;;;;;;;;;;6223783;22;20027;-89
2022/11/01 08:20:44;;;;;;;0.10;0.10;;;;;;;;;;6198898;22;20027;-89
2022/11/01 08:23:10;;;;;;;0.20;0.20;;;;;;;;;;6225626;22;20380;-89
2022/11/01 08:25:36;;;;;;;0.10;0.10;;;;;;;;;;6225024;22;20340;-90
2022/11/01 08:28:03;;;;;;;0.15;0.15;;;;;;;;;;6225135;22;20087;-89
2022/11/01 08:30:29;;;;;;;0.10;0.10;;;;;;;;;;6249642;22;20019;-89
2022/11/01 08:32:59;;;;;;;0.10;0.10;;;;;;;;;;6222511;22;20008;-90
2022/11/01 08:35:25;;;;;;;0.10;0.10;;;;;;;;;;6223118;22;20446;-90
2022/11/01 08:37:51;;;;;;;0.10;0.10;;;;;;;;;;6197530;22;20011;-89
2022/11/01 08:40:17;;;;;;;0.10;0.10;;;;;;;;;;6222730;22;20018;-88
2022/11/01 08:42:43;;;;;;;0.10;0.10;;;;;;;;;;6248069;22;20118;-89
2022/11/01 08:45:10;;;;;;;0.10;0.10;;;;;;;;;;6197858;22;20073;-90
2022/11/01 08:47:36;;;;;;;0.20;0.20;;;;;;;;;;6247506;22;20015;-90
2022/11/01 08:50:03;;;;;;;0.25;0.25;;;;;;;;;;6247715;22;20019;-90
2022/11/01 08:52:28;;;;;;;0.10;0.10;;;;;;;;;;6222525;22;20318;-90
2022/11/01 08:54:54;;;;;;;0.10;0.10;;;;;;;;;;6247457;22;20042;-89
2022/11/01 08:57:20;;;;;;;0.17;0.17;;;;;;;;;;6222398;22;20379;-89
2022/11/01 08:59:46;;;;;;;0.10;0.10;;;;;;;;;;6222319;22;20039;-89
2022/11/01 09:02:12;;;;;;;0.10;0.10;;;;;;;;;;6222619;22;20008;-88
2022/11/01 09:04:38;;;;;;;0.20;0.20;;;;;;;;;;6222625;22;20453;-90
2022/11/01 09:07:04;;;;;;;0.10;0.10;;;;;;;;;;6197481;22;20018;-89
2022/11/01 09:09:30;;;;;;;0.10;0.10;;;;;;;;;;6197295;22;20038;-89
2022/11/01 09:11:56;;;;;;;0.10;0.10;;;;;;;;;;6197571;22;20061;-89
2022/11/01 09:14:23;;;;;;;0.10;0.10;;;;;;;;;;6222481;22;20016;-89
2022/11/01 09:16:50;;;;;;;0.10;0.10;;;;;;;;;;6247254;22;20012;-89
2022/11/01 09:19:16;;;;;;;0.10;0.10;;;;;;;;;;6198528;22;20061;-89
2022/11/01 09:21:45;;;;;;;0.10;0.10;;;;;;;;;;6199562;22;20015;-90
2022/11/01 09:24:11;;;;;;;0.60;0.60;;;;;;;;;;6199201;22;20015;-90
2022/11/01 09:26:37;;;;;;;0.10;0.10;;;;;;;;;;6224770;22;20090;-89
2022/11/01 09:29:03;;;;;;;0.10;0.10;;;;;;;;;;6199263;22;20050;-89
2022/11/01 09:31:29;;;;;;;0.10;0.10;;;;;;;;;;6199148;22;20013;-90
2022/11/01 09:33:56;;;;;;;0.20;0.20;;;;;;;;;;6199227;22;20337;-90
2022/11/01 09:36:22;;;;;;;0.10;0.10;;;;;;;;;;6198962;22;20011;-90
2022/11/01 09:38:48;;;;;;;0.10;0.10;;;;;;;;;;6249233;22;20060;-90
2022/11/01 09:41:35;;;;;;;0.10;0.10;;;;;;;;;;6199216;22;20023;-90
2022/11/01 09:44:01;;;;;;;0.20;0.20;;;;;;;;;;6223573;22;20016;-89
2022/11/01 09:46:30;;;;;;;1.65;0.30;;;;;;;;;;6199028;22;20322;-89
2022/11/01 09:48:56;;;;;;;0.10;0.10;;;;;;;;;;6199451;22;20016;-88
2022/11/01 09:51:22;;;;;;;0.20;0.20;;;;;;;;;;6224078;22;20441;-89
2022/11/01 09:53:49;;;;;;;0.10;0.10;;;;;;;;;;6224121;22;20008;-89
2022/11/01 09:56:31;;;;;;;0.10;0.10;;;;;;;;;;6198687;22;20018;-89
2022/11/01 09:59:16;;;;;;;0.52;0.52;;;;;;;;;;6224046;22;20019;-89
2022/11/01 10:01:54;;;;;;;0.10;0.10;;;;;;;;;;6248995;22;20306;-89
2022/11/01 10:04:34;;;;;;;0.30;0.30;;;;;;;;;;6198974;22;20022;-89
2022/11/01 10:07:06;;;;;;;0.10;0.10;;;;;;;;;;6198916;22;20501;-89
2022/11/01 10:09:35;;;;;;;0.50;0.50;;;;;;;;;;6248863;22;20019;-90
2022/11/01 10:12:07;;;;;;;0.10;0.10;;;;;;;;;;6249268;22;20015;-90
2022/11/01 10:14:36;;;;;;;0.10;0.10;;;;;;;;;;6248921;22;20094;-90
2022/11/01 10:17:15;;;;;;;0.10;0.10;;;;;;;;;;6248720;22;20065;-90
2022/11/01 10:19:46;;;;;;;0.10;0.10;;;;;;;;;;6223916;22;20016;-89
2022/11/01 10:22:17;;;;;;;0.10;0.10;;;;;;;;;;6198599;22;20015;-89
2022/11/01 10:24:52;;;;;;;0.15;0.15;;;;;;;;;;6224215;22;20330;-89
2022/11/01 10:27:31;;;;;;;0.10;0.10;;;;;;;;;;6223455;22;20106;-89
2022/11/01 10:30:04;;;;;;;0.10;0.10;;;;;;;;;;6223321;22;20416;-89
2022/11/01 10:32:42;;;;;;;0.10;0.10;;;;;;;;;;6248768;22;20041;-90
2022/11/01 10:35:21;;;;;;;0.10;0.10;;;;;;;;;;6223959;22;20443;-90
2022/11/01 10:37:54;;;;;;;0.10;0.10;;;;;;;;;;6223498;22;20012;-90
2022/11/01 10:40:23;;;;;;;0.40;0.40;;;;;;;;;;6223842;22;20062;-90
2022/11/01 10:42:49;;;;;;;0.10;0.10;;;;;;;;;;6198680;22;20012;-89
2022/11/01 10:45:16;;;;;;;0.10;0.10;;;;;;;;;;6198666;22;20065;-91
2022/11/01 10:47:42;;;;;;;0.10;0.10;;;;;;;;;;6223773;22;20337;-91
2022/11/01 10:50:11;;;;;;;0.10;0.10;;;;;;;;;;6222876;22;20015;-90
2022/11/01 10:52:51;;;;;;;0.60;0.60;;;;;;;;;;6248468;22;20198;-89
2022/11/01 10:55:19;;;;;;;0.10;0.10;;;;;;;;;;6198544;22;20008;-90
2022/11/01 10:57:48;;;;;;;0.10;0.10;;;;;;;;;;6198286;22;20011;-89
2022/11/01 11:00:15;;;;;;;0.10;0.10;;;;;;;;;;6223764;22;20012;-93
2022/11/01 11:02:44;;;;;;;0.10;0.10;;;;;;;;;;6223660;22;20516;-90
2022/11/01 11:05:14;;;;;;;0.10;0.10;;;;;;;;;;6198645;22;20453;-90
2022/11/01 11:07:40;;;;;;;0.10;0.10;;;;;;;;;;6223352;22;20018;-91
2022/11/01 11:10:14;;;;;;;0.10;0.10;;;;;;;;;;6199890;22;20065;-92
2022/11/01 11:12:41;;;;;;;0.10;0.10;;;;;;;;;;6224283;22;20008;-91
2022/11/01 11:15:14;;;;;;;0.10;0.10;;;;;;;;;;6199039;22;20044;-94
2022/11/01 11:17:44;;;;;;;0.17;0.17;;;;;;;;;;6198758;22;20030;-93
2022/11/01 11:20:10;;;;;;;0.17;0.17;;;;;;;;;;6199520;22;20012;-90
2022/11/01 11:22:38;;;;;;;0.10;0.10;;;;;;;;;;6198302;22;20012;-90
2022/11/01 11:25:05;;;;;;;0.10;0.10;;;;;;;;;;6223510;22;20061;-90
2022/11/01 11:27:32;;;;;;;0.15;0.15;;;;;;;;;;6198528;22;20012;-91
2022/11/01 11:30:05;;;;;;;0.10;0.10;;;;;;;;;;6223579;22;20410;-90
2022/11/01 11:32:31;;;;;;;0.20;0.20;;;;;;;;;;6223215;22;20038;-90
2022/11/01 11:34:58;;;;;;;0.20;0.20;;;;;;;;;;6198467;22;20019;-91
2022/11/01 11:37:26;;;;;;;0.10;0.10;;;;;;;;;;6197983;22;20039;-91
2022/11/01 11:40:18;;;;;;;0.13;0.13;;;;;;;;;;6223458;22;20065;-92
2022/11/01 11:42:47;;;;;;;0.10;0.10;;;;;;;;;;6216906;22;20016;-91
2022/11/01 11:45:17;;;;;;;0.10;0.10;;;;;;;;;;6198631;22;20012;-90
2022/11/01 11:47:45;;;;;;;0.10;0.10;;;;;;;;;;6197424;22;20097;-93
2022/11/01 11:50:22;;;;;;;0.20;0.20;;;;;;;;;;6198399;22;20019;-91
2022/11/01 11:52:49;;;;;;;0.10;0.10;;;;;;;;;;6248165;22;20012;-91
2022/11/01 11:55:25;;;;;;;0.20;0.20;;;;;;;;;;6197525;22;20016;-92
2022/11/01 11:57:54;;;;;;;0.10;0.10;;;;;;;;;;6247765;22;20016;-92
2022/11/01 12:00:21;;;;;;;0.10;0.10;;;;;;;;;;6197489;22;20098;-91
2022/11/01 12:02:48;;;;;;;0.10;0.10;;;;;;;;;;6198232;22;20479;-93
2022/11/01 12:05:18;;;;;;;0.10;0.10;;;;;;;;;;6222762;22;20016;-91
2022/11/01 12:07:48;;;;;;;0.10;0.10;;;;;;;;;;6197148;22;20015;-92
2022/11/01 12:10:26;;;;;;;0.20;0.20;;;;;;;;;;6197544;22;20098;-91
2022/11/01 12:12:52;;;;;;;0.10;0.10;;;;;;;;;;6247942;22;20042;-92
2022/11/01 12:15:28;;;;;;;0.10;0.10;;;;;;;;;;6197475;22;20012;-91
2022/11/01 12:17:54;;;;;;;0.10;0.10;;;;;;;;;;6248216;22;20012;-92
2022/11/01 12:20:21;;;;;;;0.10;0.10;;;;;;;;;;6197633;22;20053;-91
2022/11/01 12:23:22;;;;;;;0.10;0.10;;;;;;;;;;6197675;22;20018;-93
2022/11/01 12:25:48;;;;;;;0.10;0.10;;;;;;;;;;6151463;23;20024;-91
2022/11/01 12:28:25;;;;;;;0.20;0.20;;;;;;;;;;6173348;22;20015;-92
2022/11/01 12:30:51;;;;;;;0.10;0.10;;;;;;;;;;6197956;22;20012;-90
2022/11/01 12:33:44;;;;;;;0.10;0.10;;;;;;;;;;6195538;22;20054;-91
2022/11/01 12:36:10;;;;;;;0.40;0.40;;;;;;;;;;6217094;22;20058;-92
2022/11/01 12:38:59;;;;;;;0.10;0.10;;;;;;;;;;6196885;22;20332;-91
2022/11/01 12:41:27;;;;;;;0.10;0.10;;;;;;;;;;6197886;22;20110;-94
2022/11/01 12:44:00;;;;;;;0.10;0.10;;;;;;;;;;6198482;22;20022;-91
2022/11/01 12:46:26;;;;;;;;;;;;;;;;;;6248327;22;20012;-92
2022/11/01 12:48:51;;;;;;;;;;;;;;;;;;6222890;22;19915;-91
2022/11/01 12:51:17;;;;;;;;;;;;;;;;;;6222784;22;19915;-91
2022/11/01 12:53:43;;;;;;;;;;;;;;;;;;6223417;22;19918;-91
2022/11/01 12:56:09;;;;;;;;;;;;;;;;;;6226547;22;19917;-91
2022/11/01 12:58:35;;;;;;;;;;;;;;;;;;6226058;22;19911;-91
2022/11/01 13:01:01;;;;;;;;;;;;;;;;;;6225660;22;19919;-90
2022/11/01 13:03:28;;;;;;;;;;;;;;;;;;6225905;22;19988;-90
2022/11/01 13:05:54;;;;;;;;;;;;;;;;;;6226273;22;19914;-89
2022/11/01 13:08:21;;;;;;;;;;;;;;;;;;6225279;22;19915;-90
2022/11/01 13:10:47;;;;;;;;;;;;;;;;;;6251420;22;20286;-89
2022/11/01 13:13:13;;;;;;;;;;;;;;;;;;6225868;22;19946;-90
2022/11/01 13:15:39;;;;;;;;;;;;;;;;;;6226182;22;19911;-90
2022/11/01 13:18:05;;;;;;;;;;;;;;;;;;6225533;22;19918;-90
2022/11/01 13:20:31;;;;;;;;;;;;;;;;;;6224901;22;19915;-90
2022/11/01 13:22:56;;;;;;;;;;;;;;;;;;6225677;22;19911;-90
2022/11/01 13:25:22;;;;;;;;;;;;;;;;;;6225601;22;19915;-90
2022/11/01 13:27:48;;;;;;;;;;;;;;;;;;6225477;22;19911;-90
2022/11/01 13:30:14;;;;;;;;;;;;;;;;;;6225712;22;20237;-90
2022/11/01 13:32:40;;;;;;;;;;;;;;;;;;6225546;22;19991;-92
2022/11/01 13:35:06;;;;;;;;;;;;;;;;;;6226065;22;19986;-92
2022/11/01 13:37:32;;;;;;;;;;;;;;;;;;6225181;22;19963;-91
2022/11/01 13:39:58;;;;;;;;;;;;;;;;;;6225736;22;19929;-90
2022/11/01 13:42:24;;;;;;;;;;;;;;;;;;6225853;22;19918;-92
2022/11/01 13:44:50;;;;;;;;;;;;;;;;;;6226021;22;19973;-92
2022/11/01 13:47:16;;;;;;;;;;;;;;;;;;6225650;22;19911;-93
2022/11/01 13:49:42;;;;;;;;;;;;;;;;;;6224250;22;19968;-90
2022/11/01 13:52:08;;;;;;;;;;;;;;;;;;6225816;22;19918;-92
2022/11/01 13:54:33;;;;;;;;;;;;;;;;;;6251941;22;19911;-91
2022/11/01 13:56:59;;;;;;;;;;;;;;;;;;6225721;22;19914;-91
2022/11/01 13:59:25;;;;;;;;;;;;;;;;;;6251174;22;19911;-90
2022/11/01 14:01:51;;;;;;;;;;;;;;;;;;6226466;22;19942;-90
2022/11/01 14:04:20;;;;;;;;;;;;;;;;;;6225916;22;20411;-91
2022/11/01 14:06:46;;;;;;;;;;;;;;;;;;6247686;22;19911;-91
2022/11/01 14:09:12;;;;;;;;;;;;;;;;;;6223807;22;19943;-90
2022/11/01 14:11:38;;;;;;;;;;;;;;;;;;6223789;22;19915;-89
2022/11/01 14:14:04;;;;;;;;;;;;;;;;;;6224398;22;19911;-89
2022/11/01 14:16:30;;;;;;;;;;;;;;;;;;6224081;22;19912;-89
2022/11/01 14:18:55;;;;;;;;;;;;;;;;;;6224156;22;19911;-89
2022/11/01 14:21:21;;;;;;;;;;;;;;;;;;6224035;22;19918;-90
2022/11/01 14:23:49;;;;;;;;;;;;;;;;;;6249383;22;19985;-90
2022/11/01 14:26:15;;;;;;;;;;;;;;;;;;6223572;22;19911;-89
2022/11/01 14:28:41;;;;;;;;;;;;;;;;;;6248963;22;20396;-89
2022/11/01 14:31:07;;;;;;;;;;;;;;;;;;6223673;22;19993;-89
2022/11/01 14:33:33;;;;;;;;;;;;;;;;;;6223952;22;20009;-88
2022/11/01 14:35:59;;;;;;;;;;;;;;;;;;6248877;22;19917;-88
2022/11/01 14:38:25;;;;;;;;;;;;;;;;;;6223937;22;20009;-88
2022/11/01 14:40:51;;;;;;;;;;;;;;;;;;6249182;22;19911;-91
2022/11/01 14:43:17;;;;;;;;;;;;;;;;;;6222485;22;19911;-91
2022/11/01 14:45:43;;;;;;;;;;;;;;;;;;6223550;22;19911;-91
2022/11/01 14:48:09;;;;;;;;;;;;;;;;;;6223937;22;19922;-91
2022/11/01 14:50:35;;;;;;;;;;;;;;;;;;6224011;22;19911;-90
2022/11/01 14:53:01;;;;;;;;;;;;;;;;;;6249028;22;20343;-90
2022/11/01 14:55:29;;;;;;;;;;;;;;;;;;6211735;22;19950;-90
2022/11/01 14:57:55;;;;;;;;;;;;;;;;;;6249065;22;19961;-92
2022/11/01 15:00:22;;;;;;;;;;;;;;;;;;6223837;22;20321;-91
2022/11/01 15:02:48;;;;;;;;;;;;;;;;;;6223810;22;19944;-90
2022/11/01 15:05:15;;;;;;;;;;;;;;;;;;6223845;22;19985;-91
2022/11/01 15:07:41;;;;;;;;;;;;;;;;;;6222963;22;20317;-91
2022/11/01 15:10:08;;;;;;;;;;;;;;;;;;6223492;22;19918;-91
2022/11/01 15:12:34;;;;;;;;;;;;;;;;;;6223494;22;19911;-91
2022/11/01 15:15:00;;;;;;;;;;;;;;;;;;6223343;22;20295;-91